createdAt,value
2023-01-19T00:00:49.553Z,95.60
2023-01-19T00:03:16.466Z,95.70
2023-01-19T00:05:44.019Z,95.80
2023-01-19T00:08:17.429Z,95.80
2023-01-19T00:10:45.044Z,95.70
2023-01-19T00:13:11.999Z,95.80
2023-01-19T00:15:39.285Z,95.80
2023-01-19T00:18:06.097Z,95.90
2023-01-19T00:20:35.482Z,95.90
2023-01-19T00:23:03.116Z,95.80
2023-01-19T00:25:30.054Z,96.00
2023-01-19T00:27:57.183Z,95.90
2023-01-19T00:30:24.548Z,95.90
2023-01-19T00:32:51.358Z,95.90
2023-01-19T00:35:18.397Z,95.90
2023-01-19T00:37:46.215Z,96.10
2023-01-19T00:40:14.118Z,96.10
2023-01-19T00:42:41.100Z,96.10
2023-01-19T00:45:08.679Z,96.10
2023-01-19T00:47:35.456Z,96.10
2023-01-19T00:50:02.263Z,96.10
2023-01-19T00:52:29.002Z,96.10
2023-01-19T00:54:55.790Z,96.30
2023-01-19T00:57:22.577Z,96.20
2023-01-19T00:59:49.364Z,96.20
2023-01-19T01:02:16.353Z,96.10
2023-01-19T01:04:43.242Z,96.10
2023-01-19T01:07:10.019Z,96.10
2023-01-19T01:09:36.816Z,96.30
2023-01-19T01:12:03.757Z,96.10
2023-01-19T01:14:32.855Z,96.30
2023-01-19T01:17:00.734Z,96.10
2023-01-19T01:19:27.690Z,96.10
2023-01-19T01:21:55.596Z,96.30
2023-01-19T01:24:22.413Z,96.10
2023-01-19T01:26:49.202Z,96.30
2023-01-19T01:29:16.056Z,96.20
2023-01-19T01:31:42.987Z,96.10
2023-01-19T01:34:09.893Z,96.10
2023-01-19T01:36:36.779Z,96.10
2023-01-19T01:39:03.787Z,96.10
2023-01-19T01:41:30.743Z,96.10
2023-01-19T01:44:01.843Z,96.10
2023-01-19T01:46:29.512Z,96.10
2023-01-19T01:49:10.757Z,96.10
2023-01-19T01:51:37.526Z,96.30
2023-01-19T01:54:15.109Z,96.20
2023-01-19T01:56:43.133Z,96.30
2023-01-19T01:59:11.791Z,96.20
2023-01-19T02:01:57.290Z,96.40
2023-01-19T02:04:24.162Z,96.40
2023-01-19T02:07:09.531Z,96.40
2023-01-19T02:09:55.181Z,96.40
2023-01-19T02:12:40.958Z,96.40
2023-01-19T02:15:15.161Z,96.40
2023-01-19T02:17:42.260Z,96.30
2023-01-19T02:20:10.750Z,96.40
2023-01-19T02:22:40.975Z,96.30
2023-01-19T02:25:07.940Z,96.30
2023-01-19T02:27:34.723Z,96.20
2023-01-19T02:30:03.756Z,96.40
2023-01-19T02:32:30.599Z,96.10
2023-01-19T02:34:57.526Z,96.00
2023-01-19T02:37:24.308Z,96.00
2023-01-19T02:39:58.206Z,96.10
2023-01-19T02:42:29.534Z,96.00
2023-01-19T02:44:56.545Z,96.00
2023-01-19T02:47:23.511Z,96.00
2023-01-19T02:49:59.675Z,96.00
2023-01-19T02:52:26.867Z,96.00
2023-01-19T02:54:59.678Z,96.00
2023-01-19T02:57:27.555Z,96.00
2023-01-19T03:00:08.138Z,96.00
2023-01-19T03:02:34.977Z,96.00
2023-01-19T03:05:08.341Z,95.90
2023-01-19T03:07:42.273Z,96.00
2023-01-19T03:10:27.958Z,96.00
2023-01-19T03:12:57.793Z,95.80
2023-01-19T03:15:33.206Z,95.80
2023-01-19T03:18:00.274Z,95.70
2023-01-19T03:20:28.857Z,95.90
2023-01-19T03:22:57.496Z,95.90
2023-01-19T03:25:24.331Z,95.90
2023-01-19T03:27:51.595Z,95.90
2023-01-19T03:30:20.743Z,95.90
2023-01-19T03:32:48.894Z,96.00
2023-01-19T03:35:15.928Z,96.00
2023-01-19T03:37:43.434Z,95.90
2023-01-19T03:40:10.755Z,95.90
2023-01-19T03:42:37.596Z,95.90
2023-01-19T03:45:04.771Z,95.90
2023-01-19T03:47:31.574Z,95.90
2023-01-19T03:49:58.375Z,95.90
2023-01-19T03:52:33.210Z,95.90
2023-01-19T03:55:00.869Z,95.90
2023-01-19T03:57:27.725Z,95.90
2023-01-19T03:59:54.817Z,95.80
2023-01-19T04:02:21.616Z,95.90
2023-01-19T04:04:48.492Z,96.10
2023-01-19T04:07:15.241Z,95.90
2023-01-19T04:09:42.122Z,96.00
2023-01-19T04:12:08.975Z,96.10
2023-01-19T04:14:35.846Z,96.20
2023-01-19T04:17:02.627Z,96.20
2023-01-19T04:19:29.447Z,96.30
2023-01-19T04:21:56.945Z,96.40
2023-01-19T04:24:23.790Z,96.40
2023-01-19T04:26:51.819Z,96.50
2023-01-19T04:29:18.656Z,96.50
2023-01-19T04:31:45.515Z,96.50
2023-01-19T04:34:12.302Z,96.70
2023-01-19T04:36:39.085Z,96.70
2023-01-19T04:39:05.999Z,96.70
2023-01-19T04:41:32.825Z,96.70
2023-01-19T04:43:59.639Z,96.60
2023-01-19T04:46:26.576Z,96.70
2023-01-19T04:48:53.332Z,96.70
2023-01-19T04:51:20.242Z,96.80
2023-01-19T04:53:46.982Z,96.80
2023-01-19T04:56:13.842Z,96.70
2023-01-19T04:58:41.533Z,96.70
2023-01-19T05:01:09.713Z,96.70
2023-01-19T05:03:36.709Z,96.60
2023-01-19T05:06:03.654Z,96.60
2023-01-19T05:08:30.867Z,96.60
2023-01-19T05:10:58.019Z,96.40
2023-01-19T05:13:24.858Z,96.40
2023-01-19T05:15:51.658Z,96.40
2023-01-19T05:18:18.596Z,96.30
2023-01-19T05:20:45.432Z,96.40
2023-01-19T05:23:12.421Z,96.40
2023-01-19T05:25:39.378Z,96.30
2023-01-19T05:28:06.179Z,96.40
2023-01-19T05:30:33.031Z,96.30
2023-01-19T05:33:00.230Z,96.40
2023-01-19T05:35:35.745Z,96.20
2023-01-19T05:38:03.488Z,96.30
2023-01-19T05:40:30.282Z,96.20
2023-01-19T05:43:03.466Z,96.00
2023-01-19T05:45:30.726Z,96.10
2023-01-19T05:47:57.485Z,96.00
2023-01-19T05:50:24.280Z,96.00
2023-01-19T05:52:53.345Z,95.90
2023-01-19T05:55:20.540Z,95.90
2023-01-19T05:57:47.307Z,95.90
2023-01-19T06:00:14.446Z,95.90
2023-01-19T06:02:41.335Z,95.90
2023-01-19T06:05:08.354Z,95.90
2023-01-19T06:07:35.126Z,95.80
2023-01-19T06:10:02.022Z,95.90
2023-01-19T06:12:28.880Z,95.90
2023-01-19T06:14:55.714Z,95.80
2023-01-19T06:17:22.611Z,95.80
2023-01-19T06:19:49.401Z,96.10
2023-01-19T06:22:16.195Z,96.00
2023-01-19T06:24:43.008Z,96.00
2023-01-19T06:27:11.308Z,95.90
2023-01-19T06:29:38.192Z,95.80
2023-01-19T06:32:05.245Z,96.10
2023-01-19T06:34:32.038Z,96.30
2023-01-19T06:36:58.861Z,96.40
2023-01-19T06:39:25.883Z,96.30
2023-01-19T06:41:52.650Z,96.30
2023-01-19T06:44:19.437Z,96.30
2023-01-19T06:46:46.460Z,96.20
2023-01-19T06:49:13.253Z,96.10
2023-01-19T06:51:40.082Z,96.10
2023-01-19T06:54:06.927Z,95.80
2023-01-19T06:56:33.707Z,95.80
2023-01-19T06:59:00.767Z,95.80
2023-01-19T07:01:27.683Z,95.80
2023-01-19T07:03:54.694Z,95.80
2023-01-19T07:06:21.497Z,95.80
2023-01-19T07:08:48.323Z,95.70
2023-01-19T07:11:26.519Z,95.60
2023-01-19T07:13:58.621Z,95.80
2023-01-19T07:16:25.581Z,95.60
2023-01-19T07:18:52.385Z,95.70
2023-01-19T07:21:19.327Z,95.70
2023-01-19T07:23:49.333Z,95.60
2023-01-19T07:26:19.143Z,95.70
2023-01-19T07:28:47.476Z,95.60
2023-01-19T07:31:15.671Z,95.50
2023-01-19T07:33:42.694Z,95.40
2023-01-19T07:36:09.771Z,95.40
2023-01-19T07:38:36.608Z,95.40
2023-01-19T07:41:03.653Z,95.30
2023-01-19T07:43:30.501Z,95.40
2023-01-19T07:45:57.924Z,95.30
2023-01-19T07:48:25.228Z,95.50
2023-01-19T07:50:51.978Z,95.60
2023-01-19T07:53:18.773Z,95.50
2023-01-19T07:55:45.639Z,95.60
2023-01-19T07:58:12.473Z,95.60
2023-01-19T08:00:39.735Z,95.90
2023-01-19T08:03:06.588Z,95.80
2023-01-19T08:05:33.476Z,95.90
2023-01-19T08:08:00.743Z,96.00
2023-01-19T08:10:27.919Z,96.10
2023-01-19T08:12:55.099Z,96.40
2023-01-19T08:15:24.129Z,96.50
2023-01-19T08:18:00.935Z,96.60
2023-01-19T08:20:28.035Z,96.60
2023-01-19T08:23:00.312Z,96.60
2023-01-19T08:25:32.085Z,96.60
2023-01-19T08:27:58.967Z,96.50
2023-01-19T08:30:26.948Z,96.40
2023-01-19T08:32:54.602Z,96.50
2023-01-19T08:35:22.645Z,96.40
2023-01-19T08:37:49.851Z,96.40
2023-01-19T08:40:16.756Z,96.40
2023-01-19T08:42:43.698Z,96.40
2023-01-19T08:45:10.760Z,96.20
2023-01-19T08:47:37.592Z,96.20
2023-01-19T08:50:04.442Z,96.30
2023-01-19T08:52:31.484Z,96.30
2023-01-19T08:54:58.419Z,96.30
2023-01-19T08:57:25.401Z,96.20
2023-01-19T08:59:52.345Z,96.00
2023-01-19T09:02:19.210Z,96.10
2023-01-19T09:04:46.029Z,96.00
2023-01-19T09:07:12.828Z,96.00
2023-01-19T09:09:43.480Z,96.00
2023-01-19T09:12:10.431Z,96.00
2023-01-19T09:14:37.301Z,95.90
2023-01-19T09:17:04.364Z,96.00
2023-01-19T09:19:31.106Z,96.00
2023-01-19T09:21:59.774Z,96.00
2023-01-19T09:24:26.860Z,96.10
2023-01-19T09:26:53.780Z,96.00
2023-01-19T09:29:20.522Z,96.00
2023-01-19T09:31:47.445Z,96.00
2023-01-19T09:34:14.355Z,96.00
2023-01-19T09:36:41.304Z,96.00
2023-01-19T09:39:08.270Z,96.00
2023-01-19T09:41:35.463Z,95.90
2023-01-19T09:44:02.550Z,96.00
2023-01-19T09:46:34.419Z,96.00
2023-01-19T09:49:07.125Z,96.10
2023-01-19T09:51:35.212Z,95.80
2023-01-19T09:54:03.547Z,96.10
2023-01-19T09:56:30.448Z,96.10
2023-01-19T09:58:57.287Z,96.20
2023-01-19T10:01:24.294Z,96.40
2023-01-19T10:03:51.670Z,96.40
2023-01-19T10:06:18.521Z,96.50
2023-01-19T10:08:47.336Z,96.60
2023-01-19T10:11:17.811Z,96.60
2023-01-19T10:13:48.431Z,96.80
2023-01-19T10:16:33.924Z,96.70
2023-01-19T10:19:02.751Z,96.80
2023-01-19T10:21:39.052Z,96.70
2023-01-19T10:24:07.101Z,96.70
2023-01-19T10:26:34.748Z,96.70
2023-01-19T10:29:09.951Z,96.60
2023-01-19T10:31:38.086Z,96.50
2023-01-19T10:34:04.924Z,96.40
2023-01-19T10:36:35.695Z,96.40
2023-01-19T10:39:05.941Z,96.30
2023-01-19T10:41:42.212Z,96.30
2023-01-19T10:44:10.805Z,96.20
2023-01-19T10:46:39.053Z,96.10
2023-01-19T10:49:05.911Z,96.00
2023-01-19T10:51:32.751Z,95.90
2023-01-19T10:54:02.974Z,95.60
2023-01-19T10:56:31.306Z,95.40
2023-01-19T10:59:01.708Z,95.50
2023-01-19T11:01:29.955Z,95.50
2023-01-19T11:04:03.560Z,95.40
2023-01-19T11:06:30.752Z,95.30
2023-01-19T11:09:10.919Z,95.10
2023-01-19T11:24:02.800Z,94.40
2023-01-19T11:26:31.444Z,94.00
2023-01-19T11:28:58.858Z,94.10
2023-01-19T11:31:28.955Z,93.60
2023-01-19T11:33:56.594Z,93.60
2023-01-19T11:36:27.242Z,93.20
2023-01-19T13:08:55.443Z,82.70
2023-01-19T13:11:24.963Z,82.40
2023-01-19T13:13:59.076Z,83.80
2023-01-19T13:16:27.684Z,84.40
2023-01-19T13:19:01.817Z,84.10
2023-01-19T13:21:31.762Z,81.50
2023-01-19T13:23:59.503Z,82.30
2023-01-19T13:26:32.509Z,80.50
2023-01-19T13:29:05.211Z,82.90
2023-01-19T13:31:38.586Z,80.60
2023-01-19T13:34:09.869Z,80.70
2023-01-19T13:36:37.634Z,80.60
2023-01-19T13:39:05.677Z,79.80
2023-01-19T13:41:35.181Z,78.40
2023-01-19T13:44:02.724Z,80.40
2023-01-19T13:46:30.067Z,81.10
2023-01-19T13:48:57.994Z,79.60
2023-01-19T13:51:25.105Z,80.20
2023-01-19T13:53:58.272Z,79.50
2023-01-19T13:56:25.998Z,79.60
2023-01-19T13:58:58.754Z,79.50
2023-01-19T14:01:28.920Z,78.40
2023-01-19T14:03:56.293Z,77.80
2023-01-19T14:06:23.910Z,79.10
2023-01-19T14:09:29.476Z,78.40
2023-01-19T14:12:08.627Z,79.40
2023-01-19T14:14:35.516Z,80.60
2023-01-19T14:17:02.326Z,80.20
2023-01-19T14:19:29.367Z,76.50
2023-01-19T14:21:59.836Z,76.60
2023-01-19T14:24:29.852Z,77.30
2023-01-19T14:27:18.935Z,77.00
2023-01-19T14:29:47.499Z,76.20
2023-01-19T14:32:19.420Z,76.90
2023-01-19T14:34:49.708Z,77.40
2023-01-19T14:37:20.318Z,77.40
2023-01-19T14:39:50.962Z,78.90
2023-01-19T14:42:19.561Z,77.30
2023-01-19T14:44:48.258Z,79.70
2023-01-19T14:47:34.805Z,80.90
2023-01-19T14:50:03.731Z,79.10
2023-01-19T14:52:40.736Z,78.90
2023-01-19T14:55:08.763Z,78.10
2023-01-19T14:57:36.942Z,78.90
2023-01-19T15:00:11.568Z,78.10
2023-01-19T15:02:38.478Z,76.00
2023-01-19T15:05:05.951Z,74.60
2023-01-19T15:07:33.028Z,75.30
2023-01-19T15:09:59.899Z,75.00
2023-01-19T15:12:27.096Z,75.70
2023-01-19T15:14:53.897Z,74.20
2023-01-19T15:17:26.788Z,75.50
2023-01-19T15:19:54.443Z,77.30
2023-01-19T15:22:22.512Z,76.20
2023-01-19T15:24:49.863Z,77.20
2023-01-19T15:27:16.857Z,79.00
2023-01-19T15:29:43.871Z,79.50
2023-01-19T15:32:14.279Z,78.80
2023-01-19T15:34:41.545Z,80.90
2023-01-19T15:37:08.443Z,80.80
2023-01-19T15:39:35.406Z,81.10
2023-01-19T15:42:02.304Z,81.50
2023-01-19T15:44:29.382Z,82.10
2023-01-19T15:46:57.504Z,83.30
2023-01-19T15:49:24.545Z,83.90
2023-01-19T15:51:51.493Z,83.90
2023-01-19T15:54:18.308Z,84.10
2023-01-19T15:56:45.277Z,83.90
2023-01-19T15:59:12.175Z,83.90
2023-01-19T16:01:39.285Z,83.90
2023-01-19T16:04:06.675Z,83.90
2023-01-19T16:06:33.549Z,82.60
2023-01-19T16:09:01.515Z,83.10
2023-01-19T16:11:29.360Z,82.50
2023-01-19T16:13:56.253Z,83.00
2023-01-19T16:16:23.841Z,82.90
2023-01-19T16:18:50.709Z,83.70
2023-01-19T16:21:17.676Z,83.30
2023-01-19T16:23:44.498Z,83.90
2023-01-19T16:26:23.347Z,81.70
2023-01-19T16:28:50.319Z,79.40
2023-01-19T16:31:17.183Z,80.30
2023-01-19T16:33:46.915Z,79.80
2023-01-19T16:36:17.606Z,79.80
2023-01-19T16:38:44.493Z,80.20
2023-01-19T16:41:11.337Z,80.30
2023-01-19T16:43:38.187Z,81.30
2023-01-19T16:46:05.063Z,82.10
2023-01-19T16:48:32.412Z,83.60
2023-01-19T16:51:00.406Z,83.70
2023-01-19T16:53:27.394Z,84.80
2023-01-19T16:55:54.302Z,85.40
2023-01-19T16:58:21.187Z,85.90
2023-01-19T17:00:48.137Z,86.00
2023-01-19T17:03:15.158Z,86.20
2023-01-19T17:05:47.907Z,86.50
2023-01-19T17:08:14.742Z,87.20
2023-01-19T17:10:43.664Z,87.70
2023-01-19T17:13:10.527Z,88.70
2023-01-19T17:15:37.399Z,89.60
2023-01-19T17:18:04.385Z,89.50
2023-01-19T17:20:32.525Z,90.00
2023-01-19T17:22:59.437Z,90.00
2023-01-19T17:25:26.242Z,90.20
2023-01-19T17:27:53.061Z,90.20
2023-01-19T17:30:20.422Z,90.30
2023-01-19T17:32:47.285Z,90.50
2023-01-19T17:35:14.107Z,90.70
2023-01-19T17:37:40.944Z,90.80
2023-01-19T17:40:08.046Z,91.00
2023-01-19T17:42:38.474Z,91.10
2023-01-19T17:45:05.450Z,91.10
2023-01-19T17:47:32.293Z,91.30
2023-01-19T17:49:59.094Z,91.60
2023-01-19T17:52:25.866Z,91.70
2023-01-19T17:54:52.733Z,91.70
2023-01-19T17:57:19.570Z,91.80
2023-01-19T17:59:47.316Z,91.90
2023-01-19T18:02:14.369Z,92.00
2023-01-19T18:04:41.289Z,92.00
2023-01-19T18:07:08.173Z,92.10
2023-01-19T18:09:35.018Z,92.00
2023-01-19T18:12:01.926Z,92.20
2023-01-19T18:14:28.761Z,92.20
2023-01-19T18:16:55.544Z,92.20
2023-01-19T18:19:23.068Z,92.30
2023-01-19T18:21:51.003Z,92.40
2023-01-19T18:24:17.903Z,92.50
2023-01-19T18:26:44.685Z,92.30
2023-01-19T18:29:11.503Z,92.60
2023-01-19T18:31:38.278Z,92.50
2023-01-19T18:34:05.165Z,92.70
2023-01-19T18:36:32.730Z,93.00
2023-01-19T18:38:59.584Z,93.20
2023-01-19T18:41:27.149Z,93.30
2023-01-19T18:43:58.253Z,93.20
2023-01-19T18:46:25.522Z,93.30
2023-01-19T18:48:53.075Z,93.40
2023-01-19T18:51:19.927Z,93.50
2023-01-19T18:53:46.772Z,93.50
2023-01-19T18:56:13.910Z,93.40
2023-01-19T18:58:40.748Z,93.60
2023-01-19T19:01:26.718Z,93.50
2023-01-19T19:03:53.827Z,93.60
2023-01-19T19:06:21.061Z,93.60
2023-01-19T19:08:48.659Z,93.60
2023-01-19T19:11:15.512Z,93.70
2023-01-19T19:13:42.389Z,93.70
2023-01-19T19:16:09.705Z,94.00
2023-01-19T19:18:37.023Z,94.20
2023-01-19T19:21:07.284Z,94.00
2023-01-19T19:23:34.101Z,93.90
2023-01-19T19:26:01.668Z,94.00
2023-01-19T19:28:28.509Z,94.20
2023-01-19T19:31:04.145Z,94.00
2023-01-19T19:33:30.997Z,93.90
2023-01-19T19:35:58.220Z,93.90
2023-01-19T19:38:25.268Z,93.90
2023-01-19T19:40:54.574Z,94.10
2023-01-19T19:43:21.863Z,93.90
2023-01-19T19:45:58.535Z,93.90
2023-01-19T19:48:25.700Z,93.90
2023-01-19T19:50:53.092Z,93.90
2023-01-19T19:53:20.291Z,93.90
2023-01-19T19:55:57.114Z,93.90
2023-01-19T19:58:24.124Z,93.90
2023-01-19T20:00:51.068Z,93.90
2023-01-19T20:03:17.909Z,93.90
2023-01-19T20:05:44.672Z,93.90
2023-01-19T20:08:11.470Z,93.90
2023-01-19T20:10:38.257Z,93.90
2023-01-19T20:13:07.022Z,93.90
2023-01-19T20:15:38.302Z,94.10
2023-01-19T20:18:05.641Z,94.20
2023-01-19T20:20:33.069Z,94.30
2023-01-19T20:23:00.281Z,94.30
2023-01-19T20:25:27.249Z,94.20
2023-01-19T20:27:54.010Z,94.10
2023-01-19T20:30:20.893Z,94.20
2023-01-19T20:32:47.821Z,94.10
2023-01-19T20:35:15.523Z,94.00
2023-01-19T20:37:42.487Z,94.10
2023-01-19T20:40:09.541Z,93.90
2023-01-19T20:42:36.846Z,93.90
2023-01-19T20:45:03.664Z,94.00
2023-01-19T20:47:30.465Z,93.90
2023-01-19T20:49:57.225Z,94.20
2023-01-19T20:52:24.056Z,94.10
2023-01-19T20:54:52.256Z,94.30
2023-01-19T20:57:19.046Z,94.40
2023-01-19T20:59:45.824Z,94.20
2023-01-19T21:02:15.091Z,94.20
2023-01-19T21:04:41.947Z,94.10
2023-01-19T21:07:09.116Z,94.20
2023-01-19T21:09:36.413Z,94.20
2023-01-19T21:12:03.450Z,94.30
2023-01-19T21:14:30.227Z,94.20
2023-01-19T21:16:58.532Z,94.20
2023-01-19T21:19:25.732Z,94.20
2023-01-19T21:21:52.587Z,94.20
2023-01-19T21:24:19.337Z,94.10
2023-01-19T21:26:46.111Z,94.20
2023-01-19T21:29:14.041Z,94.20
2023-01-19T21:31:41.166Z,94.30
2023-01-19T21:34:07.953Z,94.50
2023-01-19T21:36:34.810Z,94.50
2023-01-19T21:39:01.617Z,94.50
2023-01-19T21:41:28.617Z,94.40
2023-01-19T21:43:55.388Z,94.40
2023-01-19T21:46:22.860Z,94.60
2023-01-19T21:48:49.640Z,94.70
2023-01-19T21:51:16.438Z,94.70
2023-01-19T21:53:43.194Z,94.70
2023-01-19T21:56:10.324Z,94.70
2023-01-19T21:58:37.200Z,94.80
2023-01-19T22:01:09.782Z,94.90
2023-01-19T22:03:36.730Z,95.10
2023-01-19T22:06:06.975Z,95.00
2023-01-19T22:08:33.996Z,95.00
2023-01-19T22:11:07.662Z,94.90
2023-01-19T22:13:34.563Z,94.80
2023-01-19T22:16:04.899Z,94.80
2023-01-19T22:18:31.667Z,94.80
2023-01-19T22:21:06.637Z,94.80
2023-01-19T22:23:33.478Z,94.80
2023-01-19T22:26:00.282Z,94.80
2023-01-19T22:28:27.079Z,94.70
2023-01-19T22:30:53.936Z,94.70
2023-01-19T22:33:20.795Z,94.70
2023-01-19T22:35:47.581Z,94.80
2023-01-19T22:38:14.362Z,94.70
2023-01-19T22:40:41.172Z,94.80
2023-01-19T22:43:07.947Z,94.80
2023-01-19T22:45:34.741Z,94.80
2023-01-19T22:48:01.531Z,94.90
2023-01-19T22:50:28.326Z,94.80
2023-01-19T22:52:55.592Z,94.90
2023-01-19T22:55:22.370Z,94.90
2023-01-19T22:57:49.160Z,95.10
2023-01-19T23:00:16.200Z,95.20
2023-01-19T23:02:42.986Z,95.30
2023-01-19T23:05:09.903Z,95.30
2023-01-19T23:07:36.682Z,95.40
2023-01-19T23:10:03.524Z,95.30
2023-01-19T23:12:30.268Z,95.20
2023-01-19T23:14:57.129Z,95.40
2023-01-19T23:17:23.879Z,95.50
2023-01-19T23:19:50.725Z,95.50
2023-01-19T23:22:17.559Z,95.50
2023-01-19T23:24:44.370Z,95.50
2023-01-19T23:27:12.008Z,95.50
2023-01-19T23:29:38.826Z,95.40
2023-01-19T23:32:05.616Z,95.50
2023-01-19T23:34:32.416Z,95.50
2023-01-19T23:36:59.215Z,95.40
2023-01-19T23:39:26.001Z,95.50
2023-01-19T23:41:52.849Z,95.60
2023-01-19T23:44:19.778Z,95.50
2023-01-19T23:46:46.567Z,95.50
2023-01-19T23:49:13.432Z,95.40
2023-01-19T23:51:40.743Z,95.30
2023-01-19T23:54:07.643Z,95.10
2023-01-19T23:56:35.349Z,95.00
2023-01-19T23:59:06.086Z,94.80
